Time;durP1;ratioP1;P1;durP2;ratioP2;P2;SDS_P1;SDS_P2;PMS_P1;PMS_P2;Temp;Humidity;BMP_temperature;BMP_pressure;BME280_temperature;BME280_humidity;BME280_pressure;Samples;Min_cycle;Max_cycle;Signal;HPM_P1;HPM_P2
2022/01/08 00:00:39;;;;;;;101.02;48.35;;;6.50;85.20;;;;;;1872945;77;21100;-44
2022/01/08 00:03:09;;;;;;;96.67;46.88;;;6.40;85.10;;;;;;1872953;75;21029;-44
2022/01/08 00:05:38;;;;;;;63.08;32.80;;;6.40;85.40;;;;;;1872904;75;21037;-44
2022/01/08 00:08:08;;;;;;;61.53;33.28;;;6.40;85.50;;;;;;1873033;77;21034;-44
2022/01/08 00:10:37;;;;;;;51.98;30.30;;;6.40;85.60;;;;;;1872874;77;21033;-44
2022/01/08 00:13:06;;;;;;;53.48;28.42;;;6.40;85.70;;;;;;1872926;75;21072;-45
2022/01/08 00:15:36;;;;;;;38.95;21.33;;;6.40;85.80;;;;;;1872898;75;21088;-44
2022/01/08 00:18:05;;;;;;;35.58;18.75;;;6.40;85.90;;;;;;1873032;77;21038;-45
2022/01/08 00:20:35;;;;;;;27.32;15.00;;;6.50;85.90;;;;;;1872881;75;21045;-45
2022/01/08 00:23:05;;;;;;;22.62;13.00;;;6.50;85.80;;;;;;1872798;75;21468;-44
2022/01/08 00:25:34;;;;;;;24.63;13.45;;;6.40;85.70;;;;;;1873027;76;21053;-44
2022/01/08 00:28:04;;;;;;;29.72;15.68;;;6.40;85.60;;;;;;1872991;75;21061;-44
2022/01/08 00:30:33;;;;;;;36.15;19.82;;;6.40;85.60;;;;;;1872974;76;21025;-44
2022/01/08 00:33:03;;;;;;;45.08;22.55;;;6.40;85.50;;;;;;1873000;75;21421;-44
2022/01/08 00:35:35;;;;;;;49.40;23.87;;;6.40;85.60;;;;;;1872962;75;21033;-44
2022/01/08 00:38:04;;;;;;;43.10;21.40;;;6.40;85.50;;;;;;1873192;75;21037;-44
2022/01/08 00:40:33;;;;;;;47.23;24.25;;;6.30;85.50;;;;;;1873104;77;21013;-44
2022/01/08 00:43:03;;;;;;;36.03;19.77;;;6.30;85.60;;;;;;1873062;76;21108;-45
2022/01/08 00:45:32;;;;;;;36.00;18.62;;;6.40;85.80;;;;;;1872992;75;21123;-44
2022/01/08 00:48:02;;;;;;;21.50;12.50;;;6.40;85.80;;;;;;1873045;75;21021;-44
2022/01/08 00:50:31;;;;;;;17.45;10.50;;;6.40;85.50;;;;;;1872966;77;21132;-45
2022/01/08 00:53:00;;;;;;;17.65;10.03;;;6.30;85.20;;;;;;1873095;75;21099;-45
2022/01/08 00:55:30;;;;;;;15.05;9.55;;;6.30;85.00;;;;;;1873077;75;21029;-45
2022/01/08 00:57:59;;;;;;;14.43;8.85;;;6.30;85.10;;;;;;1872987;75;21009;-45
2022/01/08 01:00:29;;;;;;;19.62;9.80;;;6.20;83.80;;;;;;1873114;75;21069;-44
2022/01/08 01:02:58;;;;;;;16.65;9.58;;;6.10;84.60;;;;;;1872991;77;21010;-44
2022/01/08 01:05:28;;;;;;;17.27;9.50;;;6.00;84.70;;;;;;1872890;75;21113;-45
2022/01/08 01:07:57;;;;;;;13.98;8.83;;;5.90;84.40;;;;;;1872909;75;21049;-45
2022/01/08 01:10:26;;;;;;;14.85;7.80;;;5.90;83.60;;;;;;1872937;76;21138;-44
2022/01/08 01:12:56;;;;;;;13.38;8.68;;;5.80;83.80;;;;;;1872994;76;21038;-45
2022/01/08 01:15:25;;;;;;;13.35;7.60;;;5.70;83.40;;;;;;1872871;76;21092;-44
2022/01/08 01:17:55;;;;;;;16.77;8.40;;;5.60;84.00;;;;;;1872912;75;21037;-44
2022/01/08 01:20:24;;;;;;;12.85;8.85;;;5.60;83.90;;;;;;1872849;75;21005;-44
2022/01/08 01:23:13;;;;;;;15.32;8.65;;;5.40;83.70;;;;;;1872980;76;21493;-45
2022/01/08 01:25:47;;;;;;;14.10;8.58;;;5.40;84.00;;;;;;1871718;75;21085;-44
2022/01/08 01:41:06;;;;;;;12.25;7.70;;;5.30;83.80;;;;;;1872926;76;21119;-44
2022/01/08 01:42:06;;;;;;;8.95;6.03;;;5.10;83.60;;;;;;1872957;76;21119;-44
2022/01/08 01:47:04;;;;;;;15.45;9.10;;;5.00;84.00;;;;;;1872881;77;21017;-44
2022/01/08 01:49:35;;;;;;;11.83;8.53;;;5.10;84.40;;;;;;1872864;76;21115;-45
2022/01/08 01:52:07;;;;;;;14.25;8.13;;;5.10;84.30;;;;;;1872946;75;21460;-44
2022/01/08 01:54:38;;;;;;;10.85;7.65;;;5.20;84.30;;;;;;1872894;76;21025;-45
2022/01/08 01:57:08;;;;;;;12.65;7.37;;;5.10;82.90;;;;;;1872861;77;21182;-44
2022/01/08 01:59:38;;;;;;;13.20;8.13;;;5.10;83.60;;;;;;1872876;75;21057;-44
2022/01/08 02:02:08;;;;;;;14.78;8.50;;;5.10;83.40;;;;;;1872839;76;21069;-44
2022/01/08 02:04:38;;;;;;;10.20;7.20;;;5.00;83.00;;;;;;1872850;75;21081;-44
2022/01/08 02:07:08;;;;;;;14.33;8.15;;;5.00;83.80;;;;;;1872983;75;21088;-45
2022/01/08 02:09:40;;;;;;;13.10;7.62;;;4.90;83.50;;;;;;1872951;76;21006;-45
2022/01/08 02:12:16;;;;;;;14.78;8.35;;;4.90;82.90;;;;;;1872947;75;21092;-44
2022/01/08 02:14:42;;;;;;;17.75;8.85;;;4.80;83.20;;;;;;1872420;75;21006;-46
2022/01/08 02:17:11;;;;;;;12.60;8.50;;;4.70;83.30;;;;;;1872896;76;21006;-44
2022/01/08 02:19:41;;;;;;;14.85;9.23;;;4.70;84.30;;;;;;1872838;75;21073;-44
2022/01/08 02:22:15;;;;;;;18.05;10.80;;;4.90;84.80;;;;;;1872856;76;21103;-46
2022/01/08 02:24:43;;;;;;;20.02;11.25;;;4.90;84.00;;;;;;1872561;76;21359;-44
2022/01/08 02:27:14;;;;;;;21.25;13.70;;;5.00;84.60;;;;;;1872831;75;21017;-44
2022/01/08 02:29:43;;;;;;;22.87;13.40;;;5.00;84.20;;;;;;1877829;76;21036;-44
2022/01/08 02:32:15;;;;;;;22.17;11.65;;;5.00;84.30;;;;;;1891650;76;21121;-45
2022/01/08 02:34:45;;;;;;;20.17;12.53;;;5.00;84.10;;;;;;1891687;76;21004;-44
2022/01/08 02:37:20;;;;;;;20.52;11.55;;;5.10;84.20;;;;;;1891586;76;21036;-45
2022/01/08 02:39:49;;;;;;;17.70;10.10;;;5.10;84.30;;;;;;1891696;75;21101;-44
2022/01/08 02:42:19;;;;;;;14.00;7.87;;;5.20;83.90;;;;;;1891627;76;21133;-44
2022/01/08 02:44:50;;;;;;;21.65;10.70;;;5.20;83.30;;;;;;1891560;76;21012;-44
2022/01/08 02:47:20;;;;;;;15.18;9.58;;;5.10;83.70;;;;;;1891609;76;21079;-44
2022/01/08 02:49:52;;;;;;;16.20;8.78;;;5.20;84.50;;;;;;1891577;76;21032;-44
2022/01/08 02:52:22;;;;;;;16.75;9.60;;;5.20;83.90;;;;;;1891692;76;21000;-45
2022/01/08 02:54:52;;;;;;;11.30;7.10;;;5.20;83.80;;;;;;1891581;75;21107;-45
2022/01/08 02:57:21;;;;;;;15.20;8.25;;;5.20;82.40;;;;;;1891798;76;21098;-44
2022/01/08 02:59:52;;;;;;;17.35;8.90;;;5.00;82.80;;;;;;1891640;76;21113;-44
2022/01/08 03:02:21;;;;;;;19.23;9.90;;;5.00;83.50;;;;;;1891676;76;21047;-44
2022/01/08 03:04:53;;;;;;;19.85;10.78;;;4.90;84.20;;;;;;1891656;76;21474;-44
2022/01/08 03:07:22;;;;;;;18.17;10.38;;;4.90;84.60;;;;;;1891698;76;21509;-44
2022/01/08 03:09:57;;;;;;;17.57;9.75;;;5.10;84.80;;;;;;1891631;75;21000;-45
2022/01/08 03:12:22;;;;;;;17.65;9.05;;;5.10;84.80;;;;;;1891169;75;21032;-45
2022/01/08 03:14:52;;;;;;;16.42;9.88;;;5.20;83.90;;;;;;1891587;75;21004;-44
2022/01/08 03:17:21;;;;;;;20.05;9.85;;;5.20;83.90;;;;;;1891580;76;21024;-44
2022/01/08 03:19:59;;;;;;;20.32;10.35;;;5.10;83.90;;;;;;1891686;76;21089;-45
2022/01/08 03:22:24;;;;;;;13.90;9.25;;;5.20;84.30;;;;;;1891044;75;21060;-44
2022/01/08 03:24:54;;;;;;;16.10;9.55;;;5.10;83.40;;;;;;1891664;76;21048;-44
2022/01/08 03:27:23;;;;;;;17.27;10.78;;;5.00;82.80;;;;;;1891684;76;21106;-44
2022/01/08 03:29:53;;;;;;;41.90;11.28;;;5.00;83.20;;;;;;1889844;76;21004;-44
2022/01/08 03:32:22;;;;;;;17.92;9.63;;;4.90;83.40;;;;;;1872873;75;21030;-44
2022/01/08 03:34:51;;;;;;;15.95;8.45;;;4.80;83.70;;;;;;1872751;75;21010;-44
2022/01/08 03:37:21;;;;;;;17.57;11.03;;;4.80;83.80;;;;;;1872957;77;21065;-44
2022/01/08 03:39:50;;;;;;;18.07;10.53;;;4.70;83.80;;;;;;1872884;76;21037;-45
2022/01/08 03:42:19;;;;;;;17.90;10.38;;;4.70;83.80;;;;;;1872795;76;21146;-44
2022/01/08 03:44:48;;;;;;;17.67;9.43;;;4.60;84.10;;;;;;1872811;76;21029;-44
2022/01/08 03:47:41;;;;;;;18.12;10.20;;;4.70;84.30;;;;;;1872793;75;21044;-44
2022/01/08 03:49:55;;;;;;;17.75;10.40;;;4.70;84.10;;;;;;1870034;76;21025;-45
2022/01/08 03:52:25;;;;;;;15.43;10.05;;;4.60;84.00;;;;;;1872799;77;21021;-44
2022/01/08 03:54:54;;;;;;;17.52;10.23;;;4.70;84.10;;;;;;1872782;77;21207;-44
2022/01/08 03:57:23;;;;;;;16.77;10.82;;;4.70;84.30;;;;;;1872886;75;21010;-44
2022/01/08 03:59:52;;;;;;;17.37;9.68;;;4.60;84.10;;;;;;1872775;75;21022;-44
2022/01/08 04:02:21;;;;;;;18.05;10.68;;;4.60;84.20;;;;;;1872742;77;21021;-44
2022/01/08 04:04:51;;;;;;;19.37;10.60;;;4.70;84.40;;;;;;1872769;77;21116;-44
2022/01/08 04:07:20;;;;;;;17.87;10.72;;;4.70;84.50;;;;;;1872771;76;21005;-44
2022/01/08 04:09:50;;;;;;;17.85;10.55;;;4.70;83.90;;;;;;1872771;75;21058;-43
2022/01/08 04:12:29;;;;;;;19.48;9.75;;;4.70;84.20;;;;;;1872724;76;21045;-45
2022/01/08 04:15:05;;;;;;;23.60;10.70;;;4.70;84.00;;;;;;1871270;76;21099;-45
2022/01/08 04:17:20;;;;;;;16.32;11.05;;;4.60;83.90;;;;;;1870331;76;21107;-44
2022/01/08 04:19:50;;;;;;;18.20;10.85;;;4.60;84.10;;;;;;1872767;75;21130;-45
2022/01/08 04:22:19;;;;;;;19.27;11.63;;;4.60;84.50;;;;;;1872687;75;21010;-44
2022/01/08 04:24:48;;;;;;;21.33;9.90;;;4.60;84.20;;;;;;1872658;77;21151;-44
2022/01/08 04:27:18;;;;;;;16.73;9.88;;;4.60;84.30;;;;;;1872732;77;21033;-45
2022/01/08 04:29:47;;;;;;;17.82;10.13;;;4.50;83.80;;;;;;1872724;75;21077;-44
2022/01/08 04:32:17;;;;;;;16.87;9.23;;;4.50;83.80;;;;;;1872724;75;21033;-45
2022/01/08 04:34:46;;;;;;;16.15;8.88;;;4.40;83.90;;;;;;1872723;77;21033;-44
2022/01/08 04:37:15;;;;;;;13.25;7.87;;;4.40;83.20;;;;;;1872736;76;21029;-45
2022/01/08 04:39:44;;;;;;;17.02;8.28;;;4.30;83.10;;;;;;1872832;77;21079;-44
2022/01/08 04:42:14;;;;;;;15.58;8.20;;;4.20;83.40;;;;;;1872809;75;21115;-44
2022/01/08 04:44:43;;;;;;;13.95;7.67;;;4.20;83.60;;;;;;1872802;76;21038;-45
2022/01/08 04:47:13;;;;;;;16.77;10.32;;;4.20;83.80;;;;;;1872877;76;21030;-44
2022/01/08 04:49:42;;;;;;;20.02;9.28;;;4.20;84.00;;;;;;1872909;77;21030;-45
2022/01/08 04:52:12;;;;;;;19.27;10.13;;;4.20;83.80;;;;;;1872891;77;21021;-44
2022/01/08 04:54:41;;;;;;;14.07;8.25;;;4.20;83.30;;;;;;1872961;76;21005;-44
2022/01/08 04:57:10;;;;;;;15.03;10.03;;;4.20;83.70;;;;;;1872855;75;21029;-45
2022/01/08 04:59:40;;;;;;;16.05;9.40;;;4.20;83.60;;;;;;1872893;75;21142;-44
2022/01/08 05:02:09;;;;;;;19.48;10.72;;;4.20;83.50;;;;;;1872947;76;21100;-44
2022/01/08 05:04:38;;;;;;;20.70;10.43;;;4.30;84.00;;;;;;1872909;75;21076;-44
2022/01/08 05:07:08;;;;;;;16.60;10.35;;;4.30;83.80;;;;;;1872824;77;21041;-45
2022/01/08 05:09:38;;;;;;;13.95;8.30;;;4.40;83.40;;;;;;1872860;77;21017;-44
2022/01/08 05:12:07;;;;;;;14.95;7.85;;;4.30;82.90;;;;;;1872930;76;21045;-45
2022/01/08 05:14:37;;;;;;;16.37;8.75;;;4.30;82.60;;;;;;1872898;77;21123;-45
2022/01/08 05:17:06;;;;;;;11.70;6.05;;;4.30;82.10;;;;;;1872834;76;21033;-44
2022/01/08 05:19:44;;;;;;;19.27;7.85;;;4.20;82.20;;;;;;1872942;75;21037;-46
2022/01/08 05:22:07;;;;;;;17.20;10.08;;;4.10;82.50;;;;;;1871460;76;21091;-45
2022/01/08 05:24:36;;;;;;;19.85;8.13;;;4.10;83.60;;;;;;1872907;76;21099;-45
2022/01/08 05:27:08;;;;;;;15.15;9.08;;;4.00;82.90;;;;;;1872959;77;21460;-44
2022/01/08 05:29:36;;;;;;;14.98;9.55;;;4.00;82.90;;;;;;1872725;75;21062;-44
2022/01/08 05:32:06;;;;;;;10.05;6.58;;;4.00;82.70;;;;;;1872882;75;21069;-44
2022/01/08 05:34:35;;;;;;;17.85;9.93;;;4.00;82.00;;;;;;1872772;77;21104;-44
2022/01/08 05:37:05;;;;;;;23.07;13.08;;;3.80;82.20;;;;;;1872781;76;21095;-44
2022/01/08 05:39:35;;;;;;;19.73;10.70;;;3.80;82.80;;;;;;1872803;76;21099;-44
2022/01/08 05:42:04;;;;;;;17.60;10.65;;;3.80;83.20;;;;;;1872698;76;21096;-44
2022/01/08 05:44:33;;;;;;;18.30;11.15;;;3.80;83.20;;;;;;1872860;76;21087;-44
2022/01/08 05:47:03;;;;;;;18.00;9.68;;;3.80;83.10;;;;;;1872837;75;21143;-45
2022/01/08 05:49:32;;;;;;;13.22;7.55;;;3.80;82.90;;;;;;1872910;75;21033;-44
2022/01/08 05:52:02;;;;;;;10.10;6.50;;;3.80;82.90;;;;;;1872837;75;21002;-44
2022/01/08 05:54:31;;;;;;;12.55;8.58;;;3.80;82.60;;;;;;1872781;75;21130;-44
2022/01/08 05:57:01;;;;;;;20.52;10.15;;;3.80;83.10;;;;;;1872791;75;21097;-44
2022/01/08 05:59:30;;;;;;;18.77;10.72;;;3.80;83.10;;;;;;1872840;75;21093;-44
2022/01/08 06:02:00;;;;;;;17.50;9.90;;;3.80;82.90;;;;;;1872892;76;21072;-44
2022/01/08 06:04:29;;;;;;;18.65;10.68;;;3.80;82.60;;;;;;1872886;75;21025;-44
2022/01/08 06:06:58;;;;;;;11.63;7.03;;;3.80;82.80;;;;;;1872920;77;21033;-44
2022/01/08 06:09:27;;;;;;;14.75;8.30;;;3.80;82.90;;;;;;1872934;76;21045;-44
2022/01/08 06:11:57;;;;;;;15.63;10.10;;;3.70;82.20;;;;;;1872935;75;21091;-45
2022/01/08 06:14:26;;;;;;;18.12;7.58;;;3.70;82.90;;;;;;1872796;77;21100;-45
2022/01/08 06:16:55;;;;;;;14.93;8.70;;;3.70;82.70;;;;;;1873009;77;21037;-45
2022/01/08 06:19:26;;;;;;;19.37;11.25;;;3.70;82.50;;;;;;1872810;75;21171;-44
2022/01/08 06:21:55;;;;;;;18.75;11.08;;;3.70;82.70;;;;;;1872843;75;21013;-45
2022/01/08 06:24:24;;;;;;;14.58;7.08;;;3.60;83.00;;;;;;1872850;75;21100;-44
2022/01/08 06:26:54;;;;;;;22.05;11.18;;;3.60;82.50;;;;;;1872807;75;21084;-44
2022/01/08 06:29:23;;;;;;;18.32;10.20;;;3.60;83.00;;;;;;1872846;75;21095;-46
2022/01/08 06:31:53;;;;;;;14.25;8.40;;;3.60;83.30;;;;;;1872730;75;21115;-44
2022/01/08 06:34:23;;;;;;;11.20;7.35;;;3.70;82.70;;;;;;1872908;77;21025;-44
2022/01/08 06:36:51;;;;;;;20.30;10.28;;;3.70;82.10;;;;;;1872822;77;21034;-45
2022/01/08 06:39:20;;;;;;;17.57;10.63;;;3.70;82.60;;;;;;1872810;75;21065;-44
2022/01/08 06:41:50;;;;;;;15.08;8.08;;;3.70;82.70;;;;;;1872742;75;21175;-45
2022/01/08 06:44:19;;;;;;;16.25;7.35;;;3.70;82.70;;;;;;1872866;75;21198;-44
2022/01/08 06:46:49;;;;;;;14.73;9.53;;;3.70;82.10;;;;;;1872961;75;21026;-44
2022/01/08 06:49:18;;;;;;;10.25;6.65;;;3.70;82.20;;;;;;1872800;75;21037;-45
2022/01/08 06:51:48;;;;;;;15.30;8.88;;;3.60;82.00;;;;;;1872907;76;21484;-44
2022/01/08 06:54:18;;;;;;;17.92;10.30;;;3.60;83.10;;;;;;1872793;75;21108;-45
2022/01/08 06:56:47;;;;;;;7.87;4.95;;;3.60;82.70;;;;;;1872937;75;21033;-45
2022/01/08 06:59:16;;;;;;;16.02;9.70;;;3.60;82.20;;;;;;1872773;76;21029;-44
2022/01/08 07:01:45;;;;;;;21.85;10.40;;;3.60;82.40;;;;;;1872798;77;21083;-45
2022/01/08 07:04:15;;;;;;;16.12;9.70;;;3.50;82.60;;;;;;1872878;77;21083;-45
2022/01/08 07:06:44;;;;;;;14.85;8.98;;;3.50;82.70;;;;;;1872939;76;21009;-45
2022/01/08 07:09:14;;;;;;;18.35;10.35;;;3.50;82.60;;;;;;1872874;76;21099;-46
2022/01/08 07:11:43;;;;;;;12.47;8.30;;;3.50;82.70;;;;;;1872772;75;21031;-45
2022/01/08 07:14:13;;;;;;;17.12;7.35;;;3.50;83.00;;;;;;1872823;77;21095;-45
2022/01/08 07:16:42;;;;;;;16.42;9.33;;;3.50;82.70;;;;;;1872884;77;21033;-44
2022/01/08 07:19:11;;;;;;;24.07;10.55;;;3.50;83.00;;;;;;1872806;76;21041;-44
2022/01/08 07:21:41;;;;;;;16.05;9.15;;;3.50;82.60;;;;;;1872738;75;21006;-44
2022/01/08 07:24:10;;;;;;;21.75;10.68;;;3.50;82.50;;;;;;1872762;76;21162;-45
2022/01/08 07:26:40;;;;;;;15.38;10.88;;;3.50;82.90;;;;;;1872760;77;21330;-45
2022/01/08 07:29:09;;;;;;;27.35;15.53;;;3.50;82.80;;;;;;1872731;75;21045;-45
2022/01/08 07:31:39;;;;;;;18.90;10.03;;;3.50;82.90;;;;;;1872868;75;21095;-45
2022/01/08 07:34:08;;;;;;;14.43;8.33;;;3.50;83.00;;;;;;1872715;75;21191;-44
2022/01/08 07:36:38;;;;;;;11.20;8.20;;;3.50;82.90;;;;;;1872772;76;21079;-44
2022/01/08 07:39:08;;;;;;;10.28;6.70;;;3.50;82.60;;;;;;1872824;75;21050;-45
2022/01/08 07:41:37;;;;;;;18.05;10.70;;;3.50;82.60;;;;;;1872837;75;21029;-45
2022/01/08 07:44:06;;;;;;;24.82;14.38;;;3.50;82.90;;;;;;1872733;75;21010;-44
2022/01/08 07:46:36;;;;;;;18.10;11.00;;;3.60;83.00;;;;;;1872818;75;21476;-44
2022/01/08 07:49:05;;;;;;;18.98;10.28;;;3.60;82.90;;;;;;1872781;75;21033;-45
2022/01/08 07:51:34;;;;;;;11.08;7.65;;;3.60;83.00;;;;;;1872862;75;21037;-45
2022/01/08 07:54:04;;;;;;;20.17;10.45;;;3.70;82.90;;;;;;1872714;75;21034;-46
2022/01/08 07:56:35;;;;;;;20.15;10.45;;;3.70;83.10;;;;;;1872822;75;21122;-44
2022/01/08 07:59:04;;;;;;;16.12;9.33;;;3.70;83.10;;;;;;1872879;75;21518;-45
2022/01/08 08:01:33;;;;;;;20.40;11.70;;;3.70;83.00;;;;;;1872658;76;21095;-44
2022/01/08 08:04:03;;;;;;;23.57;11.03;;;3.70;82.90;;;;;;1872816;75;21033;-44
2022/01/08 08:06:36;;;;;;;15.30;8.50;;;3.70;83.00;;;;;;1872751;77;21032;-43
2022/01/08 08:09:03;;;;;;;21.07;8.93;;;3.70;82.90;;;;;;1872557;75;21107;-45
2022/01/08 08:11:33;;;;;;;19.23;10.00;;;3.80;82.90;;;;;;1872782;77;21033;-46
2022/01/08 08:14:02;;;;;;;21.33;11.93;;;3.80;83.30;;;;;;1872659;75;21025;-44
2022/01/08 08:16:31;;;;;;;24.15;12.50;;;3.80;83.20;;;;;;1872841;76;21108;-46
2022/01/08 08:19:01;;;;;;;13.10;7.95;;;3.80;83.20;;;;;;1872676;76;21057;-43
2022/01/08 08:21:30;;;;;;;16.52;9.35;;;3.80;83.40;;;;;;1872960;75;21009;-44
2022/01/08 08:24:01;;;;;;;16.05;9.88;;;3.80;83.20;;;;;;1872808;75;21179;-44
2022/01/08 08:26:30;;;;;;;12.05;6.75;;;3.90;83.50;;;;;;1872750;76;21002;-44
2022/01/08 08:28:59;;;;;;;18.15;9.75;;;3.90;83.30;;;;;;1872812;76;21122;-45
2022/01/08 08:31:29;;;;;;;25.65;12.55;;;3.90;83.20;;;;;;1872878;75;21010;-46
2022/01/08 08:33:58;;;;;;;19.50;10.58;;;4.00;83.40;;;;;;1872732;75;21065;-44
2022/01/08 08:36:27;;;;;;;16.65;9.28;;;4.00;83.40;;;;;;1872799;76;21096;-44
2022/01/08 08:38:57;;;;;;;20.40;10.40;;;4.10;83.40;;;;;;1872821;76;21534;-44
2022/01/08 08:41:26;;;;;;;16.60;9.90;;;4.10;83.30;;;;;;1872801;75;21010;-45
2022/01/08 08:43:55;;;;;;;16.73;8.93;;;4.10;83.10;;;;;;1872826;77;21084;-44
2022/01/08 08:46:25;;;;;;;19.02;8.80;;;4.10;83.20;;;;;;1872870;75;21095;-43
2022/01/08 08:48:54;;;;;;;15.55;9.25;;;4.10;83.10;;;;;;1872754;75;21037;-46
2022/01/08 08:51:23;;;;;;;17.32;8.13;;;4.10;83.10;;;;;;1872820;75;21088;-44
2022/01/08 08:53:53;;;;;;;19.50;11.20;;;4.10;83.30;;;;;;1872715;75;21026;-44
2022/01/08 08:56:22;;;;;;;21.00;11.00;;;4.10;83.30;;;;;;1872767;76;21041;-44
2022/01/08 08:58:52;;;;;;;23.45;12.75;;;4.00;83.40;;;;;;1872756;77;21077;-45
2022/01/08 09:01:21;;;;;;;16.70;10.43;;;4.10;83.60;;;;;;1872705;76;21105;-45
2022/01/08 09:03:50;;;;;;;16.25;10.45;;;4.20;83.60;;;;;;1872756;75;21025;-44
2022/01/08 09:06:20;;;;;;;29.35;10.38;;;4.20;83.80;;;;;;1872880;75;21038;-44
2022/01/08 09:08:49;;;;;;;24.77;12.18;;;4.30;83.30;;;;;;1872678;75;21057;-44
2022/01/08 09:11:18;;;;;;;20.95;9.55;;;4.30;83.30;;;;;;1872860;76;21030;-44
2022/01/08 09:13:48;;;;;;;22.37;12.85;;;4.30;83.80;;;;;;1872763;75;21092;-44
2022/01/08 09:16:18;;;;;;;24.23;12.75;;;4.30;83.50;;;;;;1872868;77;21029;-45
2022/01/08 09:18:46;;;;;;;20.75;11.70;;;4.30;83.50;;;;;;1872743;75;21041;-44
2022/01/08 09:21:16;;;;;;;17.55;10.90;;;4.30;83.60;;;;;;1873029;76;21033;-44
2022/01/08 09:23:45;;;;;;;15.93;9.03;;;4.40;83.60;;;;;;1872812;77;21091;-44
2022/01/08 09:26:15;;;;;;;17.92;9.75;;;4.40;83.40;;;;;;1873034;76;21413;-45
2022/01/08 09:28:44;;;;;;;19.77;11.03;;;4.40;83.50;;;;;;1873156;75;21091;-45
2022/01/08 09:31:14;;;;;;;14.50;8.10;;;4.40;83.50;;;;;;1872984;75;21120;-44
2022/01/08 09:33:43;;;;;;;21.25;12.60;;;4.40;83.60;;;;;;1872823;76;21148;-44
2022/01/08 09:36:13;;;;;;;21.20;11.33;;;4.40;83.60;;;;;;1872919;75;21031;-44
2022/01/08 09:38:42;;;;;;;22.17;10.95;;;4.40;83.80;;;;;;1872919;76;21037;-45
2022/01/08 09:41:12;;;;;;;27.10;15.10;;;4.40;83.90;;;;;;1873027;75;21073;-44
2022/01/08 09:43:41;;;;;;;17.70;8.03;;;4.40;83.80;;;;;;1872866;76;21084;-45
2022/01/08 09:46:10;;;;;;;25.45;12.30;;;4.40;84.10;;;;;;1872927;75;21010;-45
2022/01/08 09:48:40;;;;;;;20.37;11.12;;;4.40;84.10;;;;;;1872920;75;21530;-44
2022/01/08 09:51:09;;;;;;;17.20;9.00;;;4.40;84.40;;;;;;1872950;75;21041;-44
2022/01/08 09:53:38;;;;;;;13.83;6.47;;;4.50;84.30;;;;;;1872939;76;21006;-45
2022/01/08 09:56:08;;;;;;;22.60;12.15;;;4.50;84.20;;;;;;1872773;75;21021;-44
2022/01/08 09:58:38;;;;;;;24.37;10.20;;;4.50;84.20;;;;;;1872905;75;21029;-44
2022/01/08 10:01:09;;;;;;;16.65;9.70;;;4.50;84.20;;;;;;1872872;75;21033;-45
2022/01/08 10:03:38;;;;;;;22.60;12.58;;;4.50;84.00;;;;;;1852953;75;21483;-44
2022/01/08 10:06:08;;;;;;;23.38;11.00;;;4.50;84.30;;;;;;1872900;76;21538;-44
2022/01/08 10:08:38;;;;;;;22.25;11.25;;;4.60;84.40;;;;;;1872964;75;21037;-44
2022/01/08 10:11:08;;;;;;;18.82;9.05;;;4.60;84.60;;;;;;1872671;75;21479;-45
2022/01/08 10:13:41;;;;;;;21.52;11.90;;;4.60;84.40;;;;;;1872846;77;21096;-45
2022/01/08 10:19:09;;;;;;;25.52;12.75;;;4.60;84.50;;;;;;1872785;75;21122;-44
2022/01/08 10:21:39;;;;;;;20.85;11.83;;;4.70;84.40;;;;;;1860950;76;21085;-46
2022/01/08 10:24:08;;;;;;;19.80;11.38;;;4.60;84.40;;;;;;1872777;75;21030;-44
2022/01/08 10:26:42;;;;;;;31.02;14.53;;;4.70;84.40;;;;;;1872801;76;21182;-45
2022/01/08 10:29:16;;;;;;;19.80;11.25;;;4.70;84.40;;;;;;1872836;76;21099;-45
2022/01/08 10:31:48;;;;;;;23.55;11.80;;;4.70;84.30;;;;;;1872939;75;21120;-44
2022/01/08 10:34:23;;;;;;;19.92;11.35;;;4.70;84.40;;;;;;1872787;75;21073;-44
2022/01/08 10:37:00;;;;;;;26.40;14.23;;;4.80;84.20;;;;;;1873040;77;21108;-44
2022/01/08 10:39:35;;;;;;;12.95;7.12;;;4.70;84.20;;;;;;1872711;77;21107;-44
2022/01/08 10:42:18;;;;;;;29.05;15.35;;;4.80;84.30;;;;;;1872867;76;21029;-44
2022/01/08 10:44:49;;;;;;;23.47;10.05;;;4.80;84.30;;;;;;1872889;75;21092;-44
2022/01/08 10:47:20;;;;;;;20.52;9.78;;;4.90;84.30;;;;;;1873007;75;20998;-46
2022/01/08 10:50:05;;;;;;;26.30;11.78;;;4.90;84.20;;;;;;1872822;75;21092;-44
2022/01/08 10:52:44;;;;;;;;;;;4.90;84.10;;;;;;1875679;76;21025;-44
2022/01/08 10:55:13;;;;;;;22.52;11.57;;;4.90;83.90;;;;;;1872908;77;20113;-44
2022/01/08 10:57:44;;;;;;;20.55;9.83;;;4.90;83.90;;;;;;1872805;75;21072;-44
2022/01/08 11:00:15;;;;;;;11.33;7.25;;;4.90;83.50;;;;;;1872822;75;21010;-46
2022/01/08 11:02:45;;;;;;;21.07;11.50;;;4.90;83.50;;;;;;1872856;76;21194;-45
2022/01/08 11:05:14;;;;;;;27.05;12.60;;;4.90;83.70;;;;;;1872877;75;21033;-44
2022/01/08 11:07:45;;;;;;;15.03;9.85;;;4.90;83.50;;;;;;1872924;76;21550;-44
2022/01/08 11:10:21;;;;;;;25.23;11.63;;;4.90;83.40;;;;;;1872902;77;21515;-45
2022/01/08 11:12:48;;;;;;;26.23;13.62;;;4.90;83.50;;;;;;1872159;76;21054;-45
2022/01/08 11:17:55;;;;;;;22.75;11.33;;;5.00;83.40;;;;;;1872696;75;21107;-45
2022/01/08 11:20:26;;;;;;;26.37;11.60;;;5.00;83.30;;;;;;1873086;75;21030;-44
2022/01/08 11:22:58;;;;;;;12.65;7.65;;;5.00;83.20;;;;;;1872854;75;21334;-45
2022/01/08 11:25:33;;;;;;;22.73;11.43;;;5.00;82.90;;;;;;1872861;76;21010;-44
2022/01/08 11:28:10;;;;;;;26.68;13.08;;;5.10;83.10;;;;;;1873043;75;21100;-44
2022/01/08 11:30:42;;;;;;;26.27;12.90;;;5.10;83.00;;;;;;1872855;77;21108;-46
2022/01/08 11:33:17;;;;;;;17.00;10.13;;;5.10;82.90;;;;;;1871920;76;21582;-44
2022/01/08 11:35:45;;;;;;;26.05;12.18;;;5.10;82.70;;;;;;1872438;75;21507;-45
2022/01/08 11:38:18;;;;;;;26.05;10.63;;;5.10;82.90;;;;;;1872899;77;21065;-44
2022/01/08 11:40:50;;;;;;;27.67;12.23;;;5.10;82.90;;;;;;1872870;76;21488;-44
2022/01/08 11:43:22;;;;;;;21.90;11.88;;;5.10;82.70;;;;;;1872668;77;21092;-45
2022/01/08 11:46:03;;;;;;;23.15;10.40;;;5.00;82.90;;;;;;1872972;76;21095;-44
2022/01/08 11:48:35;;;;;;;20.50;11.95;;;5.00;83.30;;;;;;1872912;77;21112;-46
2022/01/08 11:51:06;;;;;;;34.48;12.40;;;5.00;82.90;;;;;;1872908;75;21127;-44
2022/01/08 11:53:37;;;;;;;14.98;9.05;;;5.10;83.00;;;;;;1872776;75;20998;-45
2022/01/08 11:56:09;;;;;;;8.50;6.83;;;5.00;82.50;;;;;;1870290;75;21558;-45
2022/01/08 11:58:39;;;;;;;16.75;6.80;;;5.00;82.80;;;;;;1870650;75;21462;-44
2022/01/08 12:01:12;;;;;;;12.93;7.53;;;5.00;82.60;;;;;;1872940;75;21104;-45
2022/01/08 12:03:44;;;;;;;12.78;8.58;;;5.00;82.50;;;;;;1873007;76;21021;-44
2022/01/08 12:06:30;;;;;;;12.75;8.38;;;5.00;82.60;;;;;;1872179;77;21084;-44
2022/01/08 12:09:08;;;;;;;;;;;5.00;82.90;;;;;;1875744;76;21058;-44
2022/01/08 12:11:49;;;;;;;26.02;6.78;;;5.00;82.80;;;;;;1872929;75;20109;-44
2022/01/08 12:14:20;;;;;;;18.32;9.45;;;5.00;82.70;;;;;;1873026;75;21114;-44
2022/01/08 12:16:52;;;;;;;15.90;9.05;;;5.00;82.80;;;;;;1872906;76;21034;-45
2022/01/08 12:19:39;;;;;;;9.48;5.67;;;5.10;82.90;;;;;;1872728;75;21010;-44
2022/01/08 12:22:23;;;;;;;9.85;6.95;;;5.10;82.90;;;;;;1872790;75;21037;-45
2022/01/08 12:24:58;;;;;;;16.97;9.28;;;5.00;82.80;;;;;;1872970;75;21045;-44
2022/01/08 12:27:40;;;;;;;24.55;11.45;;;5.00;82.70;;;;;;1872987;75;21045;-44
2022/01/08 12:30:24;;;;;;;17.35;9.00;;;5.00;82.90;;;;;;1872988;77;21057;-44
2022/01/08 12:32:55;;;;;;;23.45;8.55;;;5.00;83.20;;;;;;1872870;75;21525;-44
2022/01/08 12:35:37;;;;;;;15.58;8.03;;;5.00;82.90;;;;;;1868398;75;21057;-45
2022/01/08 12:38:02;;;;;;;14.43;7.55;;;5.00;82.90;;;;;;1871825;76;21057;-46
2022/01/08 12:40:39;;;;;;;22.67;10.05;;;5.00;82.90;;;;;;1872983;75;21053;-45
2022/01/08 12:43:20;;;;;;;13.28;8.93;;;5.00;83.00;;;;;;1872762;75;21034;-45
2022/01/08 12:45:51;;;;;;;20.55;10.03;;;5.00;83.10;;;;;;1872973;75;21480;-45
2022/01/08 12:48:22;;;;;;;13.80;7.22;;;5.00;82.90;;;;;;1869432;76;21116;-45
2022/01/08 12:50:55;;;;;;;19.42;8.95;;;5.00;83.00;;;;;;1872916;77;21038;-45
2022/01/08 12:53:26;;;;;;;19.52;10.28;;;5.10;83.10;;;;;;1872790;75;21062;-45
2022/01/08 12:55:58;;;;;;;17.45;8.15;;;5.10;83.20;;;;;;1872950;76;21042;-45
2022/01/08 12:58:33;;;;;;;22.37;8.55;;;5.10;83.30;;;;;;1872960;77;21061;-45
2022/01/08 13:01:09;;;;;;;13.05;7.78;;;5.10;83.20;;;;;;1872999;75;21034;-44
2022/01/08 13:03:44;;;;;;;15.83;8.15;;;5.10;83.10;;;;;;1872878;75;21009;-44
2022/01/08 13:06:18;;;;;;;16.90;9.10;;;5.10;83.00;;;;;;1873065;75;21092;-44
2022/01/08 13:08:48;;;;;;;;;;;5.10;83.20;;;;;;1875649;76;21107;-44
2022/01/08 13:11:20;;;;;;;20.00;8.83;;;5.10;83.20;;;;;;1872801;77;20101;-44
2022/01/08 13:13:53;;;;;;;7.55;5.40;;;5.10;83.40;;;;;;1872788;75;21014;-44
2022/01/08 13:16:27;;;;;;;13.98;7.85;;;5.00;83.20;;;;;;1872740;75;21021;-45
2022/01/08 13:19:14;;;;;;;11.40;7.05;;;5.00;83.30;;;;;;1868157;75;21103;-45